Time;durP1;ratioP1;P1;durP2;ratioP2;P2;SDS_P1;SDS_P2;PMS_P1;PMS_P2;Temp;Humidity;BMP_temperature;BMP_pressure;BME280_temperature;BME280_humidity;BME280_pressure;Samples;Min_cycle;Max_cycle;Signal;HPM_P1;HPM_P2
2022/05/11 00:01:26;;;;;;;5.38;2.70;;;;;;;15.91;46.53;100309.22;713468;1174;114519;-74
2022/05/11 00:16:29;;;;;;;4.60;2.95;;;;;;;15.99;46.09;100295.97;713347;1174;115003;-74
2022/05/11 00:31:31;;;;;;;7.08;3.13;;;;;;;15.97;46.65;100267.04;713416;1174;115354;-74
2022/05/11 00:46:42;;;;;;;6.70;3.13;;;;;;;16.09;46.65;100259.55;713254;1174;115849;-74
2022/05/11 01:01:45;;;;;;;6.63;3.10;;;;;;;16.11;47.03;100240.85;713323;1174;115618;-74
2022/05/11 01:16:48;;;;;;;6.67;3.63;;;;;;;16.14;47.17;100214.06;713374;1174;114689;-74
2022/05/11 01:31:51;;;;;;;8.90;4.53;;;;;;;16.07;47.63;100198.03;713692;1174;115885;-74
2022/05/11 01:46:57;;;;;;;10.03;4.43;;;;;;;15.94;48.01;100188.03;713442;1174;114825;-76
2022/05/11 02:01:59;;;;;;;13.63;5.05;;;;;;;15.73;49.00;100177.16;713818;1174;116004;-78
2022/05/11 02:17:01;;;;;;;10.68;4.65;;;;;;;15.71;48.99;100145.61;713491;1174;114885;-80
2022/05/11 02:32:04;;;;;;;8.77;4.10;;;;;;;15.75;48.98;100128.40;713391;1174;115109;-77
2022/05/11 02:47:07;;;;;;;8.03;4.07;;;;;;;15.75;49.89;100125.75;713197;1176;114176;-79
2022/05/11 03:02:09;;;;;;;5.38;3.53;;;;;;;15.77;50.46;100121.13;713397;1174;114717;-78
2022/05/11 03:17:12;;;;;;;9.23;4.53;;;;;;;15.79;50.77;100110.38;713472;1174;115057;-77
2022/05/11 03:47:35;;;;;;;7.33;4.20;;;;;;;16.10;51.95;100091.02;713288;1174;114416;-78
2022/05/11 04:02:38;;;;;;;6.80;4.23;;;;;;;16.07;53.22;100070.22;713290;1177;114629;-79
2022/05/11 04:17:42;;;;;;;7.70;3.50;;;;;;;16.24;53.52;100076.22;713862;1174;114900;-72
2022/05/11 04:32:45;;;;;;;9.58;5.23;;;;;;;16.36;55.00;100069.49;716552;1174;114632;-72
2022/05/11 04:47:47;;;;;;;8.55;4.78;;;;;;;16.52;54.69;100105.59;714053;1174;115343;-71
2022/05/11 05:02:50;;;;;;;10.10;4.98;;;;;;;16.43;55.16;100115.44;713603;1174;114749;-72
2022/05/11 05:17:54;;;;;;;14.43;6.20;;;;;;;16.40;55.30;100099.89;713507;1174;115613;-72
2022/05/11 05:32:56;;;;;;;9.65;5.20;;;;;;;16.45;56.45;100150.48;713100;1174;115940;-72
2022/05/11 05:47:59;;;;;;;11.30;4.87;;;;;;;16.76;56.50;100122.27;713008;1174;115484;-71
2022/05/11 06:03:03;;;;;;;9.50;5.65;;;;;;;17.00;56.62;100150.41;713484;1174;114213;-77
2022/05/11 06:18:07;;;;;;;19.43;7.80;;;;;;;17.86;57.03;100147.26;713201;1174;113872;-78
2022/05/11 06:33:10;;;;;;;12.13;5.58;;;;;;;18.22;57.45;100135.02;713104;1174;114278;-76
2022/05/11 06:48:14;;;;;;;12.77;6.13;;;;;;;19.07;56.62;100153.72;713201;1174;114295;-77
2022/05/11 07:03:18;;;;;;;17.43;5.53;;;;;;;20.21;55.77;100138.28;714676;1174;115033;-76
2022/05/11 07:18:21;;;;;;;11.58;4.65;;;;;;;20.65;55.22;100142.20;713800;1174;115363;-78
2022/05/11 07:33:24;;;;;;;10.60;5.70;;;;;;;20.86;55.22;100143.86;713676;1174;115264;-77
2022/05/11 07:48:26;;;;;;;10.15;5.73;;;;;;;21.09;55.52;100130.10;713125;1174;115300;-78
2022/05/11 08:03:29;;;;;;;9.67;5.93;;;;;;;21.47;55.83;100107.20;713453;1174;115463;-77
2022/05/11 08:18:32;;;;;;;12.10;4.90;;;;;;;22.16;55.15;100109.33;713615;1174;115259;-77
2022/05/11 08:33:40;;;;;;;12.43;4.95;;;;;;;23.24;55.24;100115.42;713392;1174;114687;-78
2022/05/11 08:49:47;;;;;;;8.23;4.88;;;;;;;24.24;53.85;100091.88;713460;1174;115141;-77
2022/05/11 09:04:59;;;;;;;7.75;3.80;;;;;;;25.28;53.46;100101.20;713922;1174;114357;-79
2022/05/11 09:20:09;;;;;;;10.47;4.10;;;;;;;25.14;53.00;100089.09;714275;1174;114210;-79
2022/05/11 09:35:22;;;;;;;7.33;3.60;;;;;;;25.56;52.44;100096.94;714630;1174;115672;-77
2022/05/11 09:50:25;;;;;;;15.83;11.60;;;;;;;24.46;52.55;100110.91;714040;1174;115469;-82
2022/05/11 10:05:36;;;;;;;11.65;5.53;;;;;;;24.27;53.42;100102.16;713783;1174;115529;-83
2022/05/11 10:36:42;;;;;;;13.00;7.18;;;;;;;23.53;54.02;100107.67;713478;1174;115648;-81
2022/05/11 10:51:57;;;;;;;9.35;5.53;;;;;;;23.32;55.17;100103.60;714812;1174;114664;-82
2022/05/11 11:07:23;;;;;;;11.53;5.13;;;;;;;23.78;55.81;100088.80;713682;1174;114908;-82
2022/05/11 11:22:26;;;;;;;5.83;4.38;;;;;;;24.09;54.62;100090.44;713973;1174;115248;-75
2022/05/11 11:37:31;;;;;;;10.50;5.00;;;;;;;23.50;55.24;100084.84;713364;1174;115494;-74
2022/05/11 11:52:46;;;;;;;6.08;4.58;;;;;;;23.26;55.47;100081.23;713242;1174;115519;-75
2022/05/11 12:23:30;;;;;;;7.13;3.17;;;;;;;24.24;54.41;100036.44;713580;1174;115335;-69
2022/05/11 12:38:38;;;;;;;5.73;3.47;;;;;;;25.76;54.26;100023.98;714056;1174;114104;-81
2022/05/11 12:53:56;;;;;;;4.80;2.80;;;;;;;26.02;52.45;100008.30;713409;1174;115516;-80
2022/05/11 13:09:08;;;;;;;4.08;3.20;;;;;;;26.30;52.62;100004.70;712941;1177;115694;-80
2022/05/11 13:24:11;;;;;;;5.55;2.70;;;;;;;26.54;52.06;99982.98;713123;1174;114133;-79
2022/05/11 13:39:14;;;;;;;7.68;3.13;;;;;;;26.70;51.60;99962.51;713416;1174;113962;-79
2022/05/11 13:54:21;;;;;;;22.93;14.58;;;;;;;26.86;51.52;99942.01;713375;1174;114154;-77
2022/05/11 14:09:26;;;;;;;14.90;9.05;;;;;;;27.98;50.82;99917.16;713810;1174;115321;-76
2022/05/11 14:24:29;;;;;;;9.87;4.80;;;;;;;29.60;49.18;99902.02;716478;1175;115758;-76
2022/05/11 14:39:31;;;;;;;6.38;3.68;;;;;;;27.32;50.21;99879.72;716171;1174;114304;-76
2022/05/11 14:54:34;;;;;;;5.30;3.70;;;;;;;27.16;52.12;99858.08;713225;1174;115056;-76
2022/05/11 15:09:38;;;;;;;5.47;3.83;;;;;;;27.79;51.97;99824.34;715515;1174;115465;-76
2022/05/11 15:24:43;;;;;;;4.63;3.80;;;;;;;27.83;51.77;99828.94;713624;1174;114399;-76
2022/05/11 15:39:47;;;;;;;10.80;4.95;;;;;;;27.10;52.12;99818.72;713198;1174;114658;-77
2022/05/11 15:54:50;;;;;;;4.80;4.27;;;;;;;27.29;53.37;99804.86;713155;1174;115153;-83
2022/05/11 16:09:52;;;;;;;7.88;6.15;;;;;;;27.35;53.96;99787.69;713341;1174;115430;-76
2022/05/11 16:24:58;;;;;;;10.30;5.20;;;;;;;27.34;53.68;99751.85;713225;1174;114888;-80
2022/05/11 16:40:03;;;;;;;10.20;5.90;;;;;;;26.92;54.24;99738.38;713449;1176;114049;-80
2022/05/11 16:55:08;;;;;;;7.90;5.35;;;;;;;26.97;55.26;99708.82;713166;1174;115676;-81
2022/05/11 17:10:16;;;;;;;12.60;8.20;;;;;;;26.67;55.16;99683.27;713106;1174;114286;-73
2022/05/11 17:25:18;;;;;;;11.53;8.40;;;;;;;26.14;56.20;99666.93;713379;1174;115010;-74
2022/05/11 17:40:21;;;;;;;9.38;6.50;;;;;;;25.47;57.47;99655.39;713734;1174;114204;-75
2022/05/11 17:55:25;;;;;;;8.63;7.20;;;;;;;24.68;57.95;99633.89;713742;1174;113989;-74
2022/05/11 18:10:30;;;;;;;24.85;19.10;;;;;;;24.09;59.20;99616.27;714217;1174;115849;-73
2022/05/11 18:25:38;;;;;;;25.75;13.30;;;;;;;23.88;59.63;99616.92;713785;1173;114995;-73
2022/05/11 18:40:41;;;;;;;12.77;8.93;;;;;;;23.58;60.32;99602.72;713678;1173;114918;-74
2022/05/11 18:55:44;;;;;;;21.77;10.48;;;;;;;23.31;60.47;99596.28;714147;1174;114782;-75
2022/05/11 19:10:49;;;;;;;10.57;8.33;;;;;;;23.19;61.05;99617.70;713666;1174;115547;-73
2022/05/11 19:25:57;;;;;;;16.18;10.18;;;;;;;22.95;61.73;99609.67;713813;1174;114206;-74
2022/05/11 19:41:01;;;;;;;12.85;8.60;;;;;;;22.70;61.88;99585.81;718560;1174;114995;-74
2022/05/11 19:56:05;;;;;;;12.30;7.35;;;;;;;22.62;62.53;99588.84;713466;1174;115608;-74
2022/05/11 20:11:09;;;;;;;9.20;7.65;;;;;;;22.72;62.63;99573.05;713539;1167;114857;-75
2022/05/11 20:26:17;;;;;;;9.60;6.80;;;;;;;22.82;62.31;99551.06;713459;1174;114219;-75
2022/05/11 20:41:20;;;;;;;11.87;6.60;;;;;;;23.10;61.80;99553.02;713301;1174;114866;-74
2022/05/11 20:56:23;;;;;;;7.53;6.30;;;;;;;23.17;60.38;99552.91;713993;1174;115968;-73
2022/05/11 21:11:25;;;;;;;9.80;7.10;;;;;;;22.72;60.82;99540.97;713413;1174;115418;-75
2022/05/11 21:26:32;;;;;;;13.50;9.13;;;;;;;21.89;63.14;99532.83;713435;1174;115151;-73
2022/05/11 21:41:36;;;;;;;8.60;6.68;;;;;;;21.76;63.09;99521.31;713447;1174;115085;-74
2022/05/11 21:56:39;;;;;;;10.57;7.27;;;;;;;21.91;63.56;99512.88;716100;1174;114813;-74
2022/05/11 22:11:42;;;;;;;9.98;6.60;;;;;;;21.91;63.18;99494.19;713459;1174;115653;-74
2022/05/11 22:26:44;;;;;;;8.97;6.10;;;;;;;21.99;62.32;99466.34;713499;1174;114823;-74
2022/05/11 22:41:46;;;;;;;9.13;6.40;;;;;;;21.99;61.95;99453.00;713629;1174;115173;-74
2022/05/11 22:56:49;;;;;;;10.68;6.15;;;;;;;22.02;62.61;99433.83;713681;1173;115564;-77
2022/05/11 23:11:51;;;;;;;10.48;6.48;;;;;;;21.99;62.58;99410.27;713970;1174;114580;-79
2022/05/11 23:26:53;;;;;;;8.93;6.10;;;;;;;22.09;62.79;99410.52;713393;1174;115288;-73
2022/05/11 23:41:55;;;;;;;8.23;6.70;;;;;;;22.17;62.52;99387.99;713314;1174;113925;-73
2022/05/11 23:56:57;;;;;;;12.13;5.97;;;;;;;22.09;63.15;99481.78;713594;1174;113916;-73
